Time;durP1;ratioP1;P1;durP2;ratioP2;P2;SDS_P1;SDS_P2;PMS_P1;PMS_P2;Temp;Humidity;BMP_temperature;BMP_pressure;BME280_temperature;BME280_humidity;BME280_pressure;Samples;Min_cycle;Max_cycle;Signal;HPM_P1;HPM_P2
2023/04/09 00:01:05;;;;;;;31.33;21.00;;;5.40;99.90;;;;;;5094582;28;20201;-79
2023/04/09 00:03:32;;;;;;;31.47;20.57;;;5.40;99.90;;;;;;5094282;28;20206;-78
2023/04/09 00:05:59;;;;;;;30.37;21.37;;;5.40;99.90;;;;;;5094231;28;20211;-79
2023/04/09 00:08:25;;;;;;;32.03;21.60;;;5.40;99.90;;;;;;5094284;28;20236;-77
2023/04/09 00:10:53;;;;;;;31.67;22.03;;;5.40;99.90;;;;;;5094309;28;20232;-79
2023/04/09 00:13:20;;;;;;;33.27;22.03;;;5.40;99.90;;;;;;5094199;28;20287;-79
2023/04/09 00:15:47;;;;;;;32.20;21.40;;;5.40;99.90;;;;;;5094144;28;20283;-78
2023/04/09 00:18:16;;;;;;;29.63;20.40;;;5.40;99.90;;;;;;5094271;28;20259;-79
2023/04/09 00:20:43;;;;;;;32.17;20.37;;;5.40;99.90;;;;;;5094185;28;20202;-79
2023/04/09 00:23:10;;;;;;;30.17;20.77;;;5.40;99.90;;;;;;5094255;28;20196;-79
2023/04/09 00:25:37;;;;;;;28.53;19.77;;;5.40;99.90;;;;;;5093898;28;20228;-79
2023/04/09 00:28:03;;;;;;;30.73;20.60;;;5.40;99.90;;;;;;5093950;28;20201;-79
2023/04/09 00:30:31;;;;;;;28.57;19.50;;;5.30;99.90;;;;;;5093907;28;20274;-79
2023/04/09 00:32:58;;;;;;;30.30;20.17;;;5.40;99.90;;;;;;5094025;28;20220;-79
2023/04/09 00:35:25;;;;;;;27.87;19.83;;;5.30;99.90;;;;;;5093526;28;20287;-79
2023/04/09 00:37:52;;;;;;;28.00;19.53;;;5.30;99.90;;;;;;5093384;28;20632;-79
2023/04/09 00:40:19;;;;;;;27.93;20.63;;;5.30;99.90;;;;;;5093385;28;20235;-79
2023/04/09 00:42:46;;;;;;;28.27;19.87;;;5.30;99.90;;;;;;5093466;28;20332;-79
2023/04/09 00:45:12;;;;;;;26.57;18.93;;;5.30;99.90;;;;;;5093569;28;20710;-79
2023/04/09 00:47:39;;;;;;;29.43;19.87;;;5.30;99.90;;;;;;5093715;28;20604;-79
2023/04/09 00:50:06;;;;;;;29.70;20.27;;;5.30;99.90;;;;;;5093376;28;20200;-78
2023/04/09 00:52:35;;;;;;;29.27;19.67;;;5.30;99.90;;;;;;5093288;28;20721;-79
2023/04/09 00:55:04;;;;;;;30.37;19.97;;;5.30;99.90;;;;;;5094020;28;20283;-78
2023/04/09 00:57:30;;;;;;;30.00;20.13;;;5.30;99.90;;;;;;5093227;28;20537;-78
2023/04/09 00:59:57;;;;;;;26.90;18.50;;;5.30;99.90;;;;;;5093516;28;20193;-79
2023/04/09 01:02:24;;;;;;;27.27;19.13;;;5.20;99.90;;;;;;5093267;28;20236;-79
2023/04/09 01:04:51;;;;;;;29.63;19.83;;;5.20;99.90;;;;;;5093391;28;20202;-79
2023/04/09 01:07:26;;;;;;;30.83;21.10;;;5.30;99.90;;;;;;5093310;28;20672;-78
2023/04/09 01:10:05;;;;;;;29.60;19.90;;;5.30;99.90;;;;;;5093832;28;20232;-79
2023/04/09 01:12:36;;;;;;;30.33;21.20;;;5.20;99.90;;;;;;5093381;28;20196;-79
2023/04/09 01:15:06;;;;;;;32.10;20.83;;;5.20;99.90;;;;;;5093657;28;20698;-79
2023/04/09 01:17:35;;;;;;;31.10;21.93;;;5.10;99.90;;;;;;5093023;28;20259;-79
2023/04/09 01:20:07;;;;;;;30.23;21.27;;;5.10;99.90;;;;;;5093479;28;20227;-78
2023/04/09 01:22:49;;;;;;;33.90;22.33;;;5.00;99.90;;;;;;5093474;28;20197;-79
2023/04/09 01:25:32;;;;;;;32.30;21.23;;;5.00;99.90;;;;;;5093421;28;20203;-79
2023/04/09 01:28:16;;;;;;;31.87;20.80;;;5.00;99.90;;;;;;5093232;28;20234;-78
2023/04/09 01:30:46;;;;;;;32.50;22.13;;;5.10;99.90;;;;;;5093398;28;20656;-79
2023/04/09 01:33:14;;;;;;;36.00;21.97;;;5.10;99.90;;;;;;5093267;28;20207;-78
2023/04/09 01:35:43;;;;;;;31.97;21.77;;;5.10;99.90;;;;;;5092994;28;20256;-78
2023/04/09 01:38:12;;;;;;;34.80;22.13;;;5.00;99.90;;;;;;5092938;28;20287;-78
2023/04/09 01:40:38;;;;;;;31.53;21.57;;;5.00;99.90;;;;;;5093354;28;20197;-78
2023/04/09 01:43:06;;;;;;;31.70;21.23;;;4.90;99.90;;;;;;5093286;28;20607;-78
2023/04/09 01:45:35;;;;;;;29.90;20.37;;;4.90;99.90;;;;;;5092890;28;20597;-78
2023/04/09 01:48:03;;;;;;;31.03;21.13;;;5.00;99.90;;;;;;5095822;28;20236;-78
2023/04/09 01:50:29;;;;;;;33.37;21.87;;;5.00;99.90;;;;;;5096802;28;20243;-78
2023/04/09 01:52:56;;;;;;;30.10;20.67;;;5.00;99.90;;;;;;5096952;28;20254;-78
2023/04/09 01:55:23;;;;;;;31.90;21.13;;;4.90;99.90;;;;;;5096969;28;20258;-78
2023/04/09 01:57:49;;;;;;;31.50;21.27;;;4.90;99.90;;;;;;5097026;28;20240;-79
2023/04/09 02:00:16;;;;;;;31.80;21.00;;;5.00;99.90;;;;;;5096956;28;20231;-78
2023/04/09 02:02:53;;;;;;;32.73;21.30;;;5.00;99.90;;;;;;5096806;28;20229;-78
2023/04/09 02:05:22;;;;;;;32.13;20.70;;;5.00;99.90;;;;;;5096625;28;20220;-78
2023/04/09 02:07:55;;;;;;;31.53;20.53;;;5.00;99.90;;;;;;5096274;28;20199;-78
2023/04/09 02:10:24;;;;;;;30.37;20.60;;;5.00;99.90;;;;;;5096736;28;20228;-78
2023/04/09 02:12:52;;;;;;;28.17;19.83;;;5.00;99.90;;;;;;5096483;28;20196;-78
2023/04/09 02:15:19;;;;;;;30.73;20.70;;;5.00;99.90;;;;;;5096291;28;20192;-78
2023/04/09 02:17:47;;;;;;;27.67;19.93;;;5.00;99.90;;;;;;5096061;28;20206;-78
2023/04/09 02:20:17;;;;;;;28.43;20.20;;;5.00;99.90;;;;;;5096219;28;20239;-78
2023/04/09 02:22:44;;;;;;;28.43;20.00;;;4.90;99.90;;;;;;5096387;28;20206;-78
2023/04/09 02:25:10;;;;;;;29.90;19.33;;;5.00;99.90;;;;;;5096143;28;20196;-77
2023/04/09 02:27:37;;;;;;;28.80;19.57;;;5.00;99.90;;;;;;5095923;28;20605;-78
2023/04/09 02:30:04;;;;;;;27.80;19.17;;;5.00;99.90;;;;;;5095835;28;20235;-78
2023/04/09 02:32:31;;;;;;;28.87;20.33;;;5.00;99.90;;;;;;5095977;28;20232;-78
2023/04/09 02:34:59;;;;;;;28.93;20.57;;;5.00;99.90;;;;;;5095876;28;20668;-78
2023/04/09 02:37:25;;;;;;;31.73;20.53;;;5.00;99.90;;;;;;5096057;28;20229;-77
2023/04/09 02:39:52;;;;;;;28.53;19.93;;;5.00;99.90;;;;;;5095521;28;20776;-78
2023/04/09 02:42:19;;;;;;;29.20;20.23;;;5.00;99.90;;;;;;5095950;28;20196;-78
2023/04/09 02:44:45;;;;;;;29.57;19.97;;;5.00;99.90;;;;;;5095882;28;20196;-77
2023/04/09 02:47:12;;;;;;;28.20;19.53;;;5.00;99.90;;;;;;5096028;28;20227;-78
2023/04/09 02:49:39;;;;;;;28.43;19.23;;;5.00;99.90;;;;;;5095895;28;20294;-78
2023/04/09 02:52:07;;;;;;;29.00;20.70;;;4.90;99.90;;;;;;5095883;28;20265;-78
2023/04/09 02:54:33;;;;;;;28.47;19.27;;;5.00;99.90;;;;;;5095856;28;20224;-78
2023/04/09 02:57:00;;;;;;;29.60;20.23;;;4.90;99.90;;;;;;5095652;28;20333;-78
2023/04/09 02:59:26;;;;;;;27.83;19.07;;;4.90;99.90;;;;;;5094310;28;20680;-78
2023/04/09 03:01:53;;;;;;;27.07;18.90;;;4.90;99.90;;;;;;5095317;28;20196;-77
2023/04/09 03:04:20;;;;;;;26.57;18.97;;;4.90;99.90;;;;;;5095639;28;20236;-78
2023/04/09 03:06:46;;;;;;;29.63;20.37;;;4.90;99.90;;;;;;5095830;28;20261;-78
2023/04/09 03:09:14;;;;;;;26.70;19.67;;;4.90;99.90;;;;;;5095566;28;20226;-78
2023/04/09 03:11:41;;;;;;;27.90;19.93;;;4.90;99.90;;;;;;5095494;28;20203;-78
2023/04/09 03:14:08;;;;;;;26.90;19.10;;;4.90;99.90;;;;;;5094895;28;20196;-77
2023/04/09 03:16:34;;;;;;;26.13;18.77;;;5.00;99.90;;;;;;5095132;28;20261;-77
2023/04/09 03:19:01;;;;;;;29.43;20.00;;;5.00;99.90;;;;;;5094946;28;20267;-76
2023/04/09 03:21:28;;;;;;;30.40;19.93;;;4.90;99.90;;;;;;5094814;28;20665;-76
2023/04/09 03:23:54;;;;;;;28.13;19.40;;;4.90;99.90;;;;;;5094903;28;20552;-77
2023/04/09 03:26:22;;;;;;;29.27;18.93;;;4.90;99.90;;;;;;5094920;28;20202;-75
2023/04/09 03:28:49;;;;;;;28.23;18.80;;;4.90;99.90;;;;;;5094403;28;20235;-76
2023/04/09 03:31:15;;;;;;;27.67;19.27;;;4.90;99.90;;;;;;5094538;28;20192;-79
2023/04/09 03:33:42;;;;;;;26.43;18.90;;;4.90;99.90;;;;;;5093904;28;20232;-76
2023/04/09 03:36:09;;;;;;;28.67;19.47;;;4.90;99.90;;;;;;5094609;28;20196;-76
2023/04/09 03:38:35;;;;;;;27.83;19.63;;;4.90;99.90;;;;;;5094473;28;20278;-76
2023/04/09 03:41:02;;;;;;;27.90;19.13;;;4.90;99.90;;;;;;5094447;28;20227;-76
2023/04/09 03:43:30;;;;;;;28.07;19.40;;;4.80;99.90;;;;;;5094298;28;20228;-76
2023/04/09 03:45:56;;;;;;;24.73;18.23;;;4.80;99.90;;;;;;5094416;28;20235;-75
2023/04/09 03:48:23;;;;;;;30.07;20.10;;;4.70;99.90;;;;;;5094396;28;20235;-76
2023/04/09 03:50:49;;;;;;;26.70;19.30;;;4.60;99.90;;;;;;5094346;28;20232;-76
2023/04/09 03:53:16;;;;;;;26.87;18.20;;;4.70;99.90;;;;;;5094089;28;20713;-75
2023/04/09 03:55:43;;;;;;;28.07;19.43;;;4.50;99.90;;;;;;5094079;28;20201;-76
2023/04/09 03:58:09;;;;;;;29.87;20.13;;;4.40;99.90;;;;;;5093873;28;20192;-76
2023/04/09 04:00:37;;;;;;;29.27;19.90;;;4.30;99.90;;;;;;5094133;28;20206;-75
2023/04/09 04:03:04;;;;;;;27.93;19.07;;;4.20;99.90;;;;;;5094042;28;20224;-76
2023/04/09 04:05:31;;;;;;;32.10;21.17;;;4.10;99.90;;;;;;5093950;28;20303;-75
2023/04/09 04:07:57;;;;;;;31.97;20.63;;;4.10;99.90;;;;;;5094067;28;20548;-75
2023/04/09 04:10:24;;;;;;;29.40;21.07;;;4.00;99.90;;;;;;5093413;28;20321;-76
2023/04/09 04:12:50;;;;;;;31.80;19.93;;;3.80;99.90;;;;;;5093776;28;20203;-76
2023/04/09 04:15:18;;;;;;;29.13;19.77;;;3.60;99.90;;;;;;5093823;28;20603;-76
2023/04/09 04:17:46;;;;;;;31.97;20.87;;;3.40;99.90;;;;;;5093830;28;20656;-76
2023/04/09 04:20:13;;;;;;;27.83;18.63;;;3.20;99.90;;;;;;5093703;28;20255;-76
2023/04/09 04:22:40;;;;;;;33.77;21.27;;;3.00;99.90;;;;;;5093815;28;20254;-76
2023/04/09 04:25:07;;;;;;;33.57;21.23;;;3.00;99.90;;;;;;5093338;28;20518;-76
2023/04/09 04:27:33;;;;;;;31.70;21.80;;;3.00;99.90;;;;;;5093693;28;20207;-76
2023/04/09 04:30:00;;;;;;;33.80;22.07;;;3.00;99.90;;;;;;5093774;28;20246;-75
2023/04/09 04:32:27;;;;;;;32.63;21.83;;;3.00;99.90;;;;;;5093708;28;20199;-77
2023/04/09 04:34:55;;;;;;;39.27;22.03;;;3.00;99.90;;;;;;5093434;28;20633;-76
2023/04/09 04:37:22;;;;;;;34.40;22.60;;;3.00;99.90;;;;;;5093497;28;20237;-76
2023/04/09 04:39:48;;;;;;;38.03;22.50;;;2.90;99.90;;;;;;5092987;28;20230;-76
2023/04/09 04:42:15;;;;;;;41.93;22.53;;;2.80;99.90;;;;;;5093586;28;20253;-76
2023/04/09 04:44:41;;;;;;;40.43;25.03;;;2.80;99.90;;;;;;5093276;28;20199;-76
2023/04/09 04:47:08;;;;;;;39.87;22.90;;;2.70;99.90;;;;;;5093529;28;20242;-76
2023/04/09 04:49:35;;;;;;;39.60;22.70;;;2.50;99.90;;;;;;5093288;28;20226;-76
2023/04/09 04:52:03;;;;;;;35.83;20.77;;;2.50;99.90;;;;;;5093095;28;20236;-76
2023/04/09 04:54:29;;;;;;;38.90;22.00;;;2.40;99.90;;;;;;5093010;28;20264;-76
2023/04/09 04:56:56;;;;;;;36.67;22.70;;;2.40;99.90;;;;;;5093043;28;20233;-76
2023/04/09 04:59:22;;;;;;;40.80;23.80;;;2.30;99.90;;;;;;5093223;28;20225;-76
2023/04/09 05:01:49;;;;;;;43.43;23.90;;;2.30;99.90;;;;;;5093097;28;20738;-77
2023/04/09 05:04:16;;;;;;;44.70;23.80;;;2.50;99.90;;;;;;5093134;28;20225;-75
2023/04/09 05:06:42;;;;;;;44.53;24.50;;;2.50;99.90;;;;;;5092936;28;20564;-75
2023/04/09 05:09:10;;;;;;;44.40;24.80;;;2.60;99.90;;;;;;5092964;28;20239;-76
2023/04/09 05:11:37;;;;;;;44.47;25.60;;;2.60;99.90;;;;;;5092985;28;20235;-77
2023/04/09 05:14:05;;;;;;;45.67;25.23;;;2.60;99.90;;;;;;5092834;28;20661;-76
2023/04/09 05:16:31;;;;;;;39.93;23.93;;;2.60;99.90;;;;;;5092534;28;20773;-77
2023/04/09 05:18:58;;;;;;;42.67;24.07;;;2.60;99.90;;;;;;5092488;28;20624;-76
2023/04/09 05:21:25;;;;;;;56.47;24.57;;;2.70;99.90;;;;;;5092433;28;20226;-76
2023/04/09 05:23:51;;;;;;;49.43;23.33;;;2.70;99.90;;;;;;5096964;28;20202;-76
2023/04/09 05:26:20;;;;;;;50.90;22.83;;;2.70;99.90;;;;;;5097265;28;20238;-77
2023/04/09 05:28:47;;;;;;;44.27;22.73;;;2.70;99.90;;;;;;5096824;28;20198;-77
2023/04/09 05:31:14;;;;;;;44.90;22.33;;;2.70;99.90;;;;;;5096890;28;20203;-77
2023/04/09 05:33:41;;;;;;;53.03;22.43;;;2.60;99.90;;;;;;5096728;28;20205;-76
2023/04/09 05:36:08;;;;;;;44.60;22.57;;;2.70;99.90;;;;;;5096870;28;20232;-77
2023/04/09 05:38:34;;;;;;;40.07;22.10;;;2.70;99.90;;;;;;5096650;28;20703;-78
2023/04/09 05:41:01;;;;;;;37.83;21.00;;;2.70;99.90;;;;;;5096605;28;20274;-77
2023/04/09 05:43:29;;;;;;;53.63;21.57;;;2.70;99.90;;;;;;5096707;28;20223;-76
2023/04/09 05:45:55;;;;;;;34.97;20.77;;;2.80;99.90;;;;;;5096706;28;20232;-76
2023/04/09 05:48:22;;;;;;;36.10;21.57;;;2.80;99.90;;;;;;5096487;28;20796;-77
2023/04/09 05:50:51;;;;;;;35.27;21.73;;;2.90;99.90;;;;;;5096496;28;20655;-80
2023/04/09 05:53:17;;;;;;;31.30;19.87;;;3.00;99.90;;;;;;5096970;28;20201;-78
2023/04/09 05:55:44;;;;;;;33.00;19.67;;;3.00;99.90;;;;;;5096920;28;20237;-78
2023/04/09 05:58:11;;;;;;;31.43;20.47;;;3.00;99.90;;;;;;5096515;28;20551;-77
2023/04/09 06:00:39;;;;;;;35.20;19.63;;;3.10;99.90;;;;;;5096175;28;20703;-76
2023/04/09 06:03:06;;;;;;;34.00;20.33;;;3.20;99.90;;;;;;5096337;28;20227;-77
2023/04/09 06:05:32;;;;;;;28.50;18.77;;;3.20;99.90;;;;;;5096989;28;20349;-77
2023/04/09 06:07:59;;;;;;;30.50;19.37;;;3.30;99.90;;;;;;5096841;28;20196;-77
2023/04/09 06:10:26;;;;;;;32.10;20.20;;;3.40;99.90;;;;;;5096422;28;20222;-77
2023/04/09 06:12:52;;;;;;;34.80;20.43;;;3.40;99.90;;;;;;5096342;28;20616;-77
2023/04/09 06:15:20;;;;;;;30.53;21.17;;;3.60;99.90;;;;;;5096227;28;20695;-77
2023/04/09 06:17:47;;;;;;;32.50;21.67;;;3.60;99.90;;;;;;5096277;28;20222;-76
2023/04/09 06:20:14;;;;;;;33.23;20.90;;;3.70;99.90;;;;;;5096320;28;20251;-78
2023/04/09 06:22:41;;;;;;;36.43;22.23;;;3.80;99.90;;;;;;5096080;28;20193;-78
2023/04/09 06:25:08;;;;;;;32.93;22.10;;;3.90;99.90;;;;;;5095797;28;20231;-78
2023/04/09 06:27:35;;;;;;;34.70;21.63;;;4.00;99.90;;;;;;5096041;28;20235;-79
2023/04/09 06:30:01;;;;;;;32.50;21.83;;;4.10;99.90;;;;;;5095940;28;20537;-78
2023/04/09 06:32:28;;;;;;;35.63;23.13;;;4.20;99.90;;;;;;5095844;28;20231;-77
2023/04/09 06:34:56;;;;;;;35.30;23.37;;;4.30;99.90;;;;;;5096163;28;20281;-79
2023/04/09 06:37:23;;;;;;;36.53;24.13;;;4.40;99.90;;;;;;5095814;28;20238;-78
2023/04/09 06:39:49;;;;;;;36.17;23.83;;;4.50;99.90;;;;;;5095894;28;20220;-79
2023/04/09 06:42:16;;;;;;;36.43;24.53;;;4.60;99.90;;;;;;5095756;28;20204;-78
2023/04/09 06:44:42;;;;;;;37.63;24.13;;;4.70;99.90;;;;;;5095915;28;20228;-78
2023/04/09 06:47:09;;;;;;;37.20;25.60;;;4.80;99.90;;;;;;5095842;28;20224;-78
2023/04/09 06:49:36;;;;;;;40.37;25.40;;;4.90;99.90;;;;;;5095852;28;20596;-78
2023/04/09 06:52:06;;;;;;;39.40;26.10;;;5.00;99.90;;;;;;5095639;28;20261;-78
2023/04/09 06:54:32;;;;;;;36.80;25.67;;;5.10;99.90;;;;;;5095493;28;20211;-77
2023/04/09 06:56:59;;;;;;;35.70;25.17;;;5.20;99.90;;;;;;5095613;28;20616;-77
2023/04/09 06:59:26;;;;;;;38.57;26.87;;;5.40;99.90;;;;;;5095417;28;20248;-78
2023/04/09 07:01:52;;;;;;;37.83;27.27;;;5.50;99.90;;;;;;5095421;28;20235;-77
2023/04/09 07:04:19;;;;;;;33.63;25.17;;;5.60;99.90;;;;;;5095493;28;20228;-76
2023/04/09 07:06:46;;;;;;;34.80;26.07;;;5.70;99.90;;;;;;5095229;28;20200;-77
2023/04/09 07:09:14;;;;;;;37.57;26.13;;;5.90;99.90;;;;;;5095128;28;20257;-77
2023/04/09 07:11:41;;;;;;;32.10;25.57;;;6.10;99.90;;;;;;5095270;28;20207;-77
2023/04/09 07:14:07;;;;;;;33.33;25.13;;;6.20;99.90;;;;;;5095077;28;20691;-77
2023/04/09 07:16:34;;;;;;;29.80;23.63;;;6.30;99.90;;;;;;5095190;28;20235;-78
2023/04/09 07:19:01;;;;;;;28.87;23.87;;;6.40;99.90;;;;;;5095076;28;20204;-77
2023/04/09 07:21:27;;;;;;;30.03;23.53;;;6.50;99.90;;;;;;5094764;28;20220;-77
2023/04/09 07:23:55;;;;;;;25.90;21.17;;;6.60;99.90;;;;;;5094898;28;20204;-77
2023/04/09 07:26:23;;;;;;;25.87;21.33;;;6.70;99.90;;;;;;5094772;28;20192;-78
2023/04/09 07:28:49;;;;;;;26.23;20.70;;;6.80;99.90;;;;;;5094994;28;20238;-78
2023/04/09 07:31:16;;;;;;;24.70;20.37;;;6.90;99.90;;;;;;5095003;28;20228;-80
2023/04/09 07:33:43;;;;;;;25.60;20.83;;;7.10;99.90;;;;;;5094687;28;20242;-78
2023/04/09 07:36:09;;;;;;;24.30;19.90;;;7.10;99.90;;;;;;5094773;28;20230;-78
2023/04/09 07:38:36;;;;;;;23.03;20.23;;;7.30;99.90;;;;;;5094728;28;20208;-78
2023/04/09 07:41:02;;;;;;;22.70;19.47;;;7.40;99.90;;;;;;5094776;28;20224;-77
2023/04/09 07:43:31;;;;;;;23.60;19.23;;;7.50;99.90;;;;;;5094416;28;20678;-76
2023/04/09 07:45:57;;;;;;;23.50;19.60;;;7.60;99.90;;;;;;5093909;28;20651;-78
2023/04/09 07:48:24;;;;;;;22.60;18.93;;;7.70;99.90;;;;;;5094355;28;20703;-77
2023/04/09 07:50:51;;;;;;;22.47;19.67;;;7.80;99.90;;;;;;5094236;28;20210;-77
2023/04/09 07:53:18;;;;;;;20.73;17.73;;;7.90;99.90;;;;;;5093950;28;20200;-77
2023/04/09 07:55:45;;;;;;;22.63;18.90;;;8.10;99.90;;;;;;5094400;28;20242;-77
2023/04/09 07:58:12;;;;;;;21.90;19.27;;;8.30;99.90;;;;;;5094316;28;20284;-77
2023/04/09 08:00:39;;;;;;;20.27;17.90;;;8.50;99.90;;;;;;5094354;28;20255;-77
2023/04/09 08:03:06;;;;;;;20.40;18.13;;;8.60;99.90;;;;;;5094073;28;20223;-77
2023/04/09 08:05:33;;;;;;;20.37;18.13;;;8.60;99.90;;;;;;5094265;28;20224;-77
2023/04/09 08:07:59;;;;;;;21.20;18.90;;;8.90;99.90;;;;;;5093930;28;20200;-78
2023/04/09 08:10:26;;;;;;;21.53;19.23;;;8.90;99.90;;;;;;5094138;28;20204;-77
2023/04/09 08:12:53;;;;;;;17.90;16.00;;;9.10;99.90;;;;;;5094012;28;20223;-78
2023/04/09 08:15:20;;;;;;;19.23;16.60;;;9.10;99.90;;;;;;5094208;28;20228;-78
2023/04/09 08:17:47;;;;;;;18.37;16.43;;;9.10;99.90;;;;;;5093868;28;20230;-77
2023/04/09 08:20:15;;;;;;;19.73;16.57;;;9.10;99.90;;;;;;5093542;28;20248;-77
2023/04/09 08:22:42;;;;;;;17.63;15.67;;;9.10;99.90;;;;;;5093334;28;20649;-77
2023/04/09 08:25:09;;;;;;;18.13;16.23;;;9.20;99.90;;;;;;5093659;28;20671;-77
2023/04/09 08:27:36;;;;;;;19.33;17.30;;;9.20;99.90;;;;;;5093567;28;20228;-78
2023/04/09 08:30:03;;;;;;;18.13;16.07;;;9.50;99.90;;;;;;5093468;28;20246;-78
2023/04/09 08:32:29;;;;;;;16.03;14.33;;;9.80;99.90;;;;;;5093449;28;20559;-78
2023/04/09 08:34:57;;;;;;;15.73;14.10;;;9.80;99.90;;;;;;5093317;28;20265;-78
2023/04/09 08:37:24;;;;;;;16.10;14.43;;;9.90;99.90;;;;;;5093376;28;20232;-78
2023/04/09 08:39:50;;;;;;;18.23;15.60;;;10.20;99.90;;;;;;5093258;28;20242;-78
2023/04/09 08:42:19;;;;;;;16.63;14.80;;;10.20;99.90;;;;;;5093115;28;20710;-80
2023/04/09 08:44:46;;;;;;;16.40;14.17;;;10.30;99.90;;;;;;5093283;28;20200;-77
2023/04/09 08:47:13;;;;;;;17.23;15.43;;;10.40;99.90;;;;;;5093214;28;20196;-78
2023/04/09 08:49:41;;;;;;;16.67;14.87;;;10.50;99.90;;;;;;5093080;28;20238;-76
2023/04/09 08:52:09;;;;;;;16.23;14.53;;;10.70;99.90;;;;;;5093068;28;20197;-76
2023/04/09 08:54:35;;;;;;;17.10;14.63;;;10.90;99.90;;;;;;5093278;28;20239;-76
2023/04/09 08:57:05;;;;;;;14.83;13.33;;;11.00;99.90;;;;;;5092048;28;20196;-76
2023/04/09 08:59:35;;;;;;;17.13;15.33;;;11.10;99.90;;;;;;5092834;28;20269;-76
2023/04/09 09:02:09;;;;;;;16.20;14.50;;;11.20;99.90;;;;;;5092360;28;20587;-75
2023/04/09 09:04:45;;;;;;;15.07;13.30;;;11.10;99.90;;;;;;5092848;28;20556;-75
2023/04/09 09:07:13;;;;;;;12.73;11.40;;;11.30;99.90;;;;;;5092966;28;20200;-78
2023/04/09 09:09:53;;;;;;;13.13;11.77;;;11.50;99.90;;;;;;5093242;28;20233;-78
2023/04/09 09:12:38;;;;;;;15.20;13.60;;;11.60;99.90;;;;;;5074191;28;20247;-78
2023/04/09 09:15:06;;;;;;;18.80;15.87;;;11.50;99.90;;;;;;5072972;28;20250;-78
2023/04/09 09:17:34;;;;;;;16.53;14.80;;;11.90;99.90;;;;;;5072834;28;20193;-78
2023/04/09 09:20:20;;;;;;;17.33;15.53;;;12.20;99.90;;;;;;5072683;28;20233;-78
2023/04/09 09:22:51;;;;;;;16.63;15.00;;;12.70;99.90;;;;;;5072823;28;20196;-77
2023/04/09 09:25:22;;;;;;;15.90;14.30;;;12.70;99.90;;;;;;5072345;28;20254;-75
2023/04/09 09:27:48;;;;;;;17.83;15.93;;;12.40;99.90;;;;;;5072810;28;20200;-78
2023/04/09 09:30:21;;;;;;;18.03;16.20;;;12.80;99.90;;;;;;5072120;28;20243;-74
2023/04/09 09:32:51;;;;;;;17.10;15.30;;;13.30;99.90;;;;;;5071819;28;20199;-73
2023/04/09 09:35:18;;;;;;;17.80;15.97;;;13.60;99.90;;;;;;5072610;28;20282;-74
2023/04/09 09:37:44;;;;;;;16.73;14.93;;;13.50;99.90;;;;;;5072446;28;20201;-74
2023/04/09 09:40:27;;;;;;;15.67;14.07;;;13.70;99.90;;;;;;5072723;28;20220;-73
2023/04/09 09:42:55;;;;;;;16.43;14.77;;;14.00;99.90;;;;;;5072815;28;20197;-75
2023/04/09 09:45:22;;;;;;;16.50;14.80;;;14.00;99.90;;;;;;5072962;28;20205;-75
2023/04/09 09:47:50;;;;;;;16.00;14.40;;;14.20;99.00;;;;;;5072581;28;20236;-73
2023/04/09 09:50:16;;;;;;;14.77;13.38;;;14.40;99.30;;;;;;5072547;28;20200;-73
2023/04/09 09:52:46;;;;;;;14.00;12.60;;;14.90;98.30;;;;;;5072795;28;20239;-73
2023/04/09 09:55:16;;;;;;;13.88;12.48;;;15.50;95.60;;;;;;5072727;28;20193;-73
2023/04/09 09:57:47;;;;;;;14.95;13.45;;;15.20;94.00;;;;;;5072750;28;20228;-73
2023/04/09 10:00:14;;;;;;;13.00;11.77;;;15.80;93.80;;;;;;5072279;28;20236;-73
2023/04/09 10:02:47;;;;;;;12.85;11.65;;;15.40;90.00;;;;;;5072369;28;20641;-73
2023/04/09 10:05:15;;;;;;;12.63;11.43;;;15.40;86.10;;;;;;5072532;28;20339;-73
2023/04/09 10:07:42;;;;;;;11.73;10.60;;;15.10;83.40;;;;;;5072290;28;20546;-73
2023/04/09 10:10:09;;;;;;;12.25;11.15;;;14.90;79.20;;;;;;5075841;28;20235;-74
2023/04/09 10:12:40;;;;;;;11.48;10.38;;;15.00;81.50;;;;;;5075758;28;20211;-73
2023/04/09 10:15:09;;;;;;;11.00;9.77;;;15.30;80.00;;;;;;5075604;28;20204;-72
2023/04/09 10:17:35;;;;;;;12.32;11.15;;;15.50;73.40;;;;;;5075685;28;20266;-73
2023/04/09 10:20:14;;;;;;;12.77;11.57;;;15.50;72.50;;;;;;5075460;28;20603;-73
2023/04/09 10:22:44;;;;;;;12.32;11.23;;;16.00;74.80;;;;;;5075675;28;20196;-73
2023/04/09 10:25:11;;;;;;;10.68;9.77;;;16.50;71.20;;;;;;5075493;28;20236;-73
2023/04/09 10:27:39;;;;;;;11.23;10.25;;;16.50;66.30;;;;;;5075633;28;20197;-73
2023/04/09 10:30:09;;;;;;;10.55;9.65;;;15.70;65.20;;;;;;5075571;28;20205;-73
2023/04/09 10:32:36;;;;;;;10.88;9.90;;;16.80;63.30;;;;;;5075525;28;20205;-73
2023/04/09 10:35:04;;;;;;;12.45;11.35;;;16.90;60.90;;;;;;5075348;28;20240;-73
2023/04/09 10:37:30;;;;;;;12.00;10.80;;;17.30;66.10;;;;;;5075303;28;20204;-73
2023/04/09 10:39:57;;;;;;;11.23;10.25;;;17.80;58.90;;;;;;5075297;28;20672;-73
2023/04/09 10:42:28;;;;;;;10.23;9.35;;;17.70;59.40;;;;;;5074988;28;20670;-74
2023/04/09 10:45:07;;;;;;;12.13;11.02;;;18.60;55.80;;;;;;5075328;28;20236;-74
2023/04/09 10:47:35;;;;;;;12.35;11.25;;;19.40;54.40;;;;;;5075033;28;20620;-74
2023/04/09 10:50:18;;;;;;;11.93;10.75;;;19.90;51.90;;;;;;5075090;28;20251;-73
2023/04/09 10:52:45;;;;;;;11.40;10.40;;;19.70;48.30;;;;;;5073082;28;20228;-73
2023/04/09 10:55:30;;;;;;;12.57;11.48;;;19.60;46.50;;;;;;5075064;28;20225;-74
2023/04/09 10:57:57;;;;;;;11.32;10.35;;;19.80;47.10;;;;;;5074903;28;20552;-73
2023/04/09 11:00:25;;;;;;;11.27;10.27;;;20.20;45.60;;;;;;5074827;28;20591;-74
2023/04/09 11:03:19;;;;;;;10.85;9.95;;;21.30;44.40;;;;;;5073469;28;20250;-74
2023/04/09 11:05:48;;;;;;;9.98;9.13;;;22.00;41.50;;;;;;5074889;28;20203;-73
2023/04/09 11:08:16;;;;;;;10.32;9.32;;;21.80;37.70;;;;;;5074879;28;20193;-73
2023/04/09 11:10:45;;;;;;;10.57;9.68;;;22.60;34.70;;;;;;5074753;28;20234;-74
2023/04/09 11:13:12;;;;;;;11.23;10.25;;;21.70;35.00;;;;;;5074648;28;20246;-73
2023/04/09 11:15:41;;;;;;;11.77;10.77;;;21.30;33.00;;;;;;5074451;28;20228;-73
2023/04/09 11:18:08;;;;;;;11.32;10.43;;;18.70;36.40;;;;;;5074617;28;20239;-73
2023/04/09 11:20:35;;;;;;;11.40;10.40;;;18.60;38.10;;;;;;5073359;28;20560;-73
2023/04/09 11:23:02;;;;;;;10.27;9.38;;;20.20;37.50;;;;;;5074501;28;20193;-73
2023/04/09 11:25:32;;;;;;;11.40;10.40;;;19.30;37.80;;;;;;5074607;28;20240;-73
2023/04/09 11:27:59;;;;;;;11.88;10.77;;;19.50;38.10;;;;;;5074285;28;20250;-73
2023/04/09 11:30:26;;;;;;;12.13;11.02;;;19.10;38.60;;;;;;5074435;28;20201;-73
2023/04/09 11:32:55;;;;;;;10.68;9.77;;;19.00;37.40;;;;;;5074371;28;20292;-73
2023/04/09 11:35:23;;;;;;;10.40;9.40;;;18.50;37.20;;;;;;5074343;28;20228;-73
2023/04/09 11:37:51;;;;;;;11.45;10.43;;;18.20;37.50;;;;;;5074060;28;20235;-73
2023/04/09 11:40:19;;;;;;;10.73;9.73;;;17.90;37.50;;;;;;5074031;28;20197;-73
2023/04/09 11:42:47;;;;;;;12.65;11.45;;;17.40;38.80;;;;;;5073921;28;20256;-74
2023/04/09 11:45:15;;;;;;;11.73;10.63;;;16.90;38.70;;;;;;5074182;28;20201;-73
2023/04/09 11:47:43;;;;;;;13.25;11.93;;;16.60;40.60;;;;;;5074403;28;20193;-73
2023/04/09 11:50:13;;;;;;;14.45;13.13;;;15.90;41.50;;;;;;5073834;28;20667;-73
2023/04/09 11:52:40;;;;;;;14.30;12.85;;;15.90;43.50;;;;;;5073700;28;20722;-73
2023/04/09 11:55:08;;;;;;;13.27;11.88;;;16.00;43.60;;;;;;5073798;28;20197;-73
2023/04/09 11:57:42;;;;;;;14.02;12.63;;;16.00;44.20;;;;;;5074067;28;20229;-73
2023/04/09 12:00:11;;;;;;;14.43;13.02;;;16.00;44.20;;;;;;5073895;28;20231;-73
2023/04/09 12:02:40;;;;;;;14.23;12.73;;;16.20;44.40;;;;;;5073688;28;20229;-73
2023/04/09 12:05:09;;;;;;;14.02;12.70;;;16.20;45.20;;;;;;5073688;28;20197;-73
2023/04/09 12:07:37;;;;;;;12.82;11.63;;;17.80;45.10;;;;;;5073626;28;20208;-73
2023/04/09 12:10:05;;;;;;;12.73;11.57;;;20.10;42.60;;;;;;5073713;28;20229;-73
2023/04/09 12:12:39;;;;;;;12.75;11.20;;;22.20;39.10;;;;;;5073594;28;20270;-74
2023/04/09 12:15:12;;;;;;;12.02;10.75;;;23.50;37.80;;;;;;5073380;28;20201;-74
2023/04/09 12:17:38;;;;;;;11.95;10.95;;;24.60;34.30;;;;;;5073405;28;20236;-74
2023/04/09 12:20:08;;;;;;;11.70;10.80;;;23.60;30.00;;;;;;5073200;28;20201;-74
2023/04/09 12:22:39;;;;;;;12.52;11.43;;;23.70;31.40;;;;;;5073443;28;20224;-74
2023/04/09 12:25:07;;;;;;;12.15;11.07;;;24.50;29.80;;;;;;5073382;28;20246;-74
2023/04/09 12:27:33;;;;;;;9.38;8.60;;;24.60;29.30;;;;;;5073292;28;20632;-74
2023/04/09 12:30:00;;;;;;;9.02;8.32;;;25.10;27.20;;;;;;5073129;28;20192;-74
2023/04/09 12:32:27;;;;;;;8.57;7.88;;;25.10;25.10;;;;;;5072853;28;20707;-74
2023/04/09 12:34:53;;;;;;;9.07;8.38;;;25.10;24.20;;;;;;5073038;28;20722;-74
2023/04/09 12:37:20;;;;;;;9.20;8.50;;;25.50;24.70;;;;;;5073421;28;20250;-74
2023/04/09 12:39:48;;;;;;;9.10;8.35;;;24.30;24.70;;;;;;5073049;28;20246;-74